Time;durP1;ratioP1;P1;durP2;ratioP2;P2;SDS_P1;SDS_P2;PMS_P1;PMS_P2;Temp;Humidity;BMP_temperature;BMP_pressure;BME280_temperature;BME280_humidity;BME280_pressure;Samples;Min_cycle;Max_cycle;Signal;HPM_P1;HPM_P2
2022/09/10 00:02:16;;;;;;;0.83;0.73;;;;;;;;;;5114303;27;20203;-66
2022/09/10 00:04:43;;;;;;;5.43;1.17;;;;;;;;;;5113664;27;20309;-65
2022/09/10 00:07:11;;;;;;;1.90;1.20;;;;;;;;;;5113850;27;20290;-66
2022/09/10 00:09:38;;;;;;;3.13;0.97;;;;;;;;;;5114012;27;20295;-67
2022/09/10 00:12:06;;;;;;;1.73;1.10;;;;;;;;;;5113757;27;20661;-66
2022/09/10 00:14:34;;;;;;;1.63;0.90;;;;;;;;;;5115278;27;20318;-66
2022/09/10 00:17:02;;;;;;;0.80;0.80;;;;;;;;;;5112742;27;20200;-65
2022/09/10 00:19:30;;;;;;;0.93;0.80;;;;;;;;;;5113582;27;20294;-68
2022/09/10 00:21:57;;;;;;;1.67;1.13;;;;;;;;;;5113799;27;20286;-67
2022/09/10 00:24:25;;;;;;;2.20;0.90;;;;;;;;;;5112221;27;20310;-64
2022/09/10 00:26:52;;;;;;;1.27;0.90;;;;;;;;;;5113324;27;20231;-66
2022/09/10 00:29:20;;;;;;;2.13;1.10;;;;;;;;;;5113382;27;20199;-69
2022/09/10 00:31:47;;;;;;;2.83;1.07;;;;;;;;;;5114152;27;20388;-64
2022/09/10 00:34:15;;;;;;;3.70;1.00;;;;;;;;;;5107293;27;20224;-66
2022/09/10 00:36:42;;;;;;;2.00;0.90;;;;;;;;;;5112563;27;20196;-66
2022/09/10 00:39:14;;;;;;;1.57;0.90;;;;;;;;;;5130008;27;20335;-65
2022/09/10 00:41:43;;;;;;;1.33;0.80;;;;;;;;;;5130530;27;20287;-66
2022/09/10 00:44:30;;;;;;;3.80;1.13;;;;;;;;;;5130553;27;20345;-67
2022/09/10 00:47:01;;;;;;;3.03;0.73;;;;;;;;;;5130258;27;20203;-66
2022/09/10 00:49:33;;;;;;;2.63;0.70;;;;;;;;;;5133264;27;20243;-66
2022/09/10 00:52:01;;;;;;;5.00;0.90;;;;;;;;;;5134044;27;20298;-66
2022/09/10 00:54:30;;;;;;;1.43;0.83;;;;;;;;;;5134071;27;20309;-66
2022/09/10 00:57:01;;;;;;;2.30;1.00;;;;;;;;;;5133648;27;20228;-64
2022/09/10 00:59:30;;;;;;;2.43;1.10;;;;;;;;;;5113151;28;20199;-67
2022/09/10 01:01:58;;;;;;;1.03;0.80;;;;;;;;;;5113538;28;20298;-66
2022/09/10 01:04:27;;;;;;;2.77;1.00;;;;;;;;;;5111990;27;20270;-66
2022/09/10 01:06:55;;;;;;;1.33;1.00;;;;;;;;;;5113341;28;20204;-66
2022/09/10 01:09:23;;;;;;;1.30;1.00;;;;;;;;;;5113228;28;20203;-65
2022/09/10 01:11:50;;;;;;;3.07;1.00;;;;;;;;;;5131595;28;20302;-67
2022/09/10 01:14:21;;;;;;;2.30;1.10;;;;;;;;;;5112851;28;20306;-65
2022/09/10 01:16:56;;;;;;;1.47;0.93;;;;;;;;;;5112906;28;20599;-67
2022/09/10 01:19:33;;;;;;;2.97;0.97;;;;;;;;;;5113345;28;20230;-65
2022/09/10 01:22:19;;;;;;;2.50;1.53;;;;;;;;;;5120759;27;20206;-67
2022/09/10 01:24:53;;;;;;;3.30;1.03;;;;;;;;;;5123412;28;20783;-66
2022/09/10 01:27:36;;;;;;;1.57;0.90;;;;;;;;;;5112270;28;20241;-67
2022/09/10 01:30:08;;;;;;;1.60;1.00;;;;;;;;;;5112559;28;20199;-65
2022/09/10 01:32:52;;;;;;;2.53;0.97;;;;;;;;;;5131045;28;20248;-66
2022/09/10 01:35:24;;;;;;;1.03;0.80;;;;;;;;;;5112611;28;20214;-66
2022/09/10 01:37:56;;;;;;;1.47;0.90;;;;;;;;;;5112586;28;20234;-66
2022/09/10 01:40:28;;;;;;;5.27;1.10;;;;;;;;;;5112924;28;20207;-65
2022/09/10 01:43:00;;;;;;;3.67;1.20;;;;;;;;;;5112782;28;20258;-66
2022/09/10 01:45:28;;;;;;;1.67;1.10;;;;;;;;;;5112651;28;20314;-66
2022/09/10 01:47:59;;;;;;;2.80;1.20;;;;;;;;;;5112377;27;20215;-65
2022/09/10 01:50:39;;;;;;;2.37;0.90;;;;;;;;;;5116177;27;20645;-66
2022/09/10 01:53:36;;;;;;;2.37;1.00;;;;;;;;;;5116586;27;20768;-65
2022/09/10 01:56:12;;;;;;;3.70;1.10;;;;;;;;;;5061312;27;20297;-66
2022/09/10 01:58:40;;;;;;;1.00;0.90;;;;;;;;;;5115994;27;20210;-65
2022/09/10 02:01:11;;;;;;;2.30;0.80;;;;;;;;;;5116449;27;20211;-67
2022/09/10 02:03:39;;;;;;;3.70;1.20;;;;;;;;;;5116556;27;20280;-68
2022/09/10 02:06:08;;;;;;;3.40;1.17;;;;;;;;;;5115964;27;20294;-66
2022/09/10 02:08:37;;;;;;;2.57;1.10;;;;;;;;;;5116341;27;20558;-64
2022/09/10 02:11:06;;;;;;;1.90;0.90;;;;;;;;;;5116378;27;20294;-65
2022/09/10 02:13:34;;;;;;;2.57;1.10;;;;;;;;;;5136560;27;20215;-66
2022/09/10 02:16:02;;;;;;;3.07;1.10;;;;;;;;;;5127284;27;20207;-66
2022/09/10 02:18:34;;;;;;;2.00;0.93;;;;;;;;;;5117410;27;20202;-65
2022/09/10 02:21:02;;;;;;;2.80;1.10;;;;;;;;;;5116644;27;20247;-65
2022/09/10 02:23:34;;;;;;;1.77;0.90;;;;;;;;;;5133948;27;20234;-66
2022/09/10 02:26:02;;;;;;;1.10;1.00;;;;;;;;;;5115751;27;20263;-65
2022/09/10 02:28:29;;;;;;;1.50;0.90;;;;;;;;;;5115397;27;20246;-66
2022/09/10 02:30:56;;;;;;;2.77;1.03;;;;;;;;;;5116086;27;20283;-65
2022/09/10 02:33:24;;;;;;;5.43;1.10;;;;;;;;;;5116030;27;20223;-67
2022/09/10 02:35:52;;;;;;;3.20;0.93;;;;;;;;;;5115754;27;20290;-66
2022/09/10 02:38:20;;;;;;;0.90;0.80;;;;;;;;;;5115975;27;20286;-66
2022/09/10 02:40:48;;;;;;;1.30;0.77;;;;;;;;;;5116509;27;20211;-67
2022/09/10 02:43:16;;;;;;;1.60;0.83;;;;;;;;;;5133849;27;20805;-65
2022/09/10 02:45:43;;;;;;;3.03;0.97;;;;;;;;;;5115488;27;20302;-64
2022/09/10 02:48:11;;;;;;;2.17;1.00;;;;;;;;;;5116796;27;20207;-67
2022/09/10 02:50:39;;;;;;;4.70;1.20;;;;;;;;;;5116305;27;20207;-65
2022/09/10 02:53:07;;;;;;;2.13;0.90;;;;;;;;;;5116201;27;20330;-64
2022/09/10 02:55:34;;;;;;;1.20;0.83;;;;;;;;;;5121705;27;20200;-67
2022/09/10 02:58:01;;;;;;;3.40;1.20;;;;;;;;;;5123277;27;20290;-66
2022/09/10 03:00:30;;;;;;;2.13;1.20;;;;;;;;;;5115702;27;20294;-66
2022/09/10 03:02:58;;;;;;;2.30;0.90;;;;;;;;;;5115565;27;20254;-65
2022/09/10 03:05:29;;;;;;;2.33;1.07;;;;;;;;;;5136072;27;20225;-65
2022/09/10 03:07:56;;;;;;;2.80;1.00;;;;;;;;;;5116111;27;20208;-65
2022/09/10 03:10:23;;;;;;;2.80;1.10;;;;;;;;;;5115163;27;20243;-66
2022/09/10 03:12:52;;;;;;;4.47;1.20;;;;;;;;;;5114441;27;20318;-67
2022/09/10 03:15:21;;;;;;;1.43;0.90;;;;;;;;;;5114279;27;20206;-65
2022/09/10 03:17:49;;;;;;;1.27;0.93;;;;;;;;;;5128900;27;20287;-67
2022/09/10 03:20:17;;;;;;;3.20;1.03;;;;;;;;;;5112608;27;20199;-66
2022/09/10 03:22:46;;;;;;;1.00;0.90;;;;;;;;;;5114315;27;20303;-66
2022/09/10 03:25:13;;;;;;;3.67;1.07;;;;;;;;;;5114573;27;20264;-65
2022/09/10 03:27:40;;;;;;;1.90;1.00;;;;;;;;;;5114124;27;20199;-66
2022/09/10 03:30:08;;;;;;;1.17;0.90;;;;;;;;;;5114933;27;20195;-65
2022/09/10 03:32:36;;;;;;;1.37;0.90;;;;;;;;;;5115276;27;20202;-65
2022/09/10 03:35:09;;;;;;;1.37;1.00;;;;;;;;;;5114715;27;20756;-65
2022/09/10 03:37:36;;;;;;;3.33;1.43;;;;;;;;;;5099337;27;20218;-65
2022/09/10 03:40:04;;;;;;;2.83;1.07;;;;;;;;;;5114654;27;20199;-65
2022/09/10 03:42:32;;;;;;;1.67;0.93;;;;;;;;;;5114033;27;20207;-65
2022/09/10 03:44:59;;;;;;;1.87;0.90;;;;;;;;;;5110159;27;20318;-66
2022/09/10 03:47:26;;;;;;;1.47;0.90;;;;;;;;;;5113417;27;20211;-64
2022/09/10 03:49:55;;;;;;;1.73;1.00;;;;;;;;;;5113681;27;20658;-65
2022/09/10 03:52:22;;;;;;;3.13;1.20;;;;;;;;;;5113917;27;20195;-66
2022/09/10 03:54:49;;;;;;;0.90;0.90;;;;;;;;;;5114205;27;20200;-65
2022/09/10 03:57:17;;;;;;;1.80;1.10;;;;;;;;;;5113438;27;20600;-66
2022/09/10 03:59:44;;;;;;;3.67;1.20;;;;;;;;;;5113628;27;20658;-65
2022/09/10 04:02:13;;;;;;;4.00;1.20;;;;;;;;;;5114172;27;20199;-65
2022/09/10 04:04:41;;;;;;;2.53;1.10;;;;;;;;;;5112528;27;20642;-66
2022/09/10 04:07:11;;;;;;;2.40;1.03;;;;;;;;;;5113640;27;20227;-66
2022/09/10 04:09:39;;;;;;;3.80;1.13;;;;;;;;;;5115466;27;20245;-64
2022/09/10 04:12:06;;;;;;;4.93;1.10;;;;;;;;;;5134878;27;20210;-66
2022/09/10 04:14:34;;;;;;;3.97;1.10;;;;;;;;;;5114612;27;20258;-66
2022/09/10 04:17:01;;;;;;;1.20;0.97;;;;;;;;;;5113903;27;20207;-66
2022/09/10 04:19:29;;;;;;;2.20;1.30;;;;;;;;;;5113273;27;20196;-65
2022/09/10 04:21:56;;;;;;;2.27;1.40;;;;;;;;;;5113275;27;20237;-66
2022/09/10 04:24:24;;;;;;;1.53;1.03;;;;;;;;;;5113226;27;20564;-65
2022/09/10 04:26:51;;;;;;;1.60;1.30;;;;;;;;;;5113179;27;20688;-65
2022/09/10 04:29:18;;;;;;;1.87;1.27;;;;;;;;;;5113322;27;20310;-66
2022/09/10 04:31:46;;;;;;;1.53;1.10;;;;;;;;;;5113281;27;20266;-65
2022/09/10 04:34:14;;;;;;;2.70;1.20;;;;;;;;;;5113568;27;20231;-65
2022/09/10 04:36:42;;;;;;;2.87;1.03;;;;;;;;;;5113180;27;20255;-66
2022/09/10 04:39:09;;;;;;;2.00;1.00;;;;;;;;;;5114516;27;20210;-66
2022/09/10 04:41:37;;;;;;;2.27;1.17;;;;;;;;;;5137595;27;20209;-65
2022/09/10 04:44:05;;;;;;;2.23;1.43;;;;;;;;;;5124305;27;20326;-66
2022/09/10 04:46:32;;;;;;;1.67;0.93;;;;;;;;;;5114092;28;20269;-65
2022/09/10 04:48:59;;;;;;;3.77;1.10;;;;;;;;;;5113125;27;20199;-65
2022/09/10 04:51:27;;;;;;;3.37;1.40;;;;;;;;;;5112936;27;20207;-65
2022/09/10 04:53:54;;;;;;;1.23;1.00;;;;;;;;;;5110499;27;20230;-65
2022/09/10 04:56:22;;;;;;;1.20;1.10;;;;;;;;;;5117926;27;20196;-65
2022/09/10 04:58:49;;;;;;;3.23;1.30;;;;;;;;;;5112488;27;20231;-66
2022/09/10 05:01:16;;;;;;;4.03;1.20;;;;;;;;;;5112762;28;20199;-65
2022/09/10 05:03:44;;;;;;;2.50;1.30;;;;;;;;;;5126980;27;20803;-65
2022/09/10 05:06:11;;;;;;;3.60;1.20;;;;;;;;;;5133163;27;20227;-66
2022/09/10 05:08:38;;;;;;;2.93;1.30;;;;;;;;;;5118336;28;20273;-65
2022/09/10 05:11:06;;;;;;;3.87;1.10;;;;;;;;;;5113294;28;20199;-64
2022/09/10 05:13:33;;;;;;;2.67;1.50;;;;;;;;;;5113118;28;20305;-65
2022/09/10 05:16:00;;;;;;;4.00;1.23;;;;;;;;;;5112975;28;20290;-66
2022/09/10 05:18:28;;;;;;;2.20;1.30;;;;;;;;;;5113362;28;20861;-65
2022/09/10 05:20:55;;;;;;;2.70;1.27;;;;;;;;;;5114163;28;20291;-66
2022/09/10 05:23:22;;;;;;;1.20;1.10;;;;;;;;;;5114909;27;20227;-66
2022/09/10 05:25:50;;;;;;;1.77;1.20;;;;;;;;;;5111048;27;20241;-65
2022/09/10 05:28:17;;;;;;;4.43;1.13;;;;;;;;;;5135802;27;20239;-66
2022/09/10 05:30:45;;;;;;;1.73;1.43;;;;;;;;;;5117053;27;20472;-66
2022/09/10 05:33:17;;;;;;;1.47;1.20;;;;;;;;;;5118028;27;20709;-66
2022/09/10 05:35:47;;;;;;;3.00;1.40;;;;;;;;;;5116670;27;20215;-65
2022/09/10 05:38:15;;;;;;;2.27;1.33;;;;;;;;;;5135452;27;20274;-65
2022/09/10 05:40:42;;;;;;;2.77;1.30;;;;;;;;;;5137554;27;20203;-64
2022/09/10 05:43:11;;;;;;;2.17;1.20;;;;;;;;;;5137339;27;20759;-65
2022/09/10 05:45:38;;;;;;;2.03;1.73;;;;;;;;;;5119390;27;20304;-65
2022/09/10 05:48:05;;;;;;;2.47;1.60;;;;;;;;;;5116444;27;20211;-66
2022/09/10 05:50:33;;;;;;;2.13;1.53;;;;;;;;;;5115615;27;20684;-65
2022/09/10 05:53:00;;;;;;;1.83;1.20;;;;;;;;;;5115677;27;20242;-64
2022/09/10 05:55:30;;;;;;;2.57;1.50;;;;;;;;;;5134545;27;20249;-65
2022/09/10 05:57:58;;;;;;;1.53;1.43;;;;;;;;;;5134336;27;20257;-66
2022/09/10 06:00:25;;;;;;;2.47;1.30;;;;;;;;;;5116378;27;20287;-65
2022/09/10 06:02:52;;;;;;;2.53;1.60;;;;;;;;;;5116052;27;20657;-65
2022/09/10 06:05:21;;;;;;;1.93;1.20;;;;;;;;;;5115569;27;20295;-66
2022/09/10 06:07:49;;;;;;;3.73;1.50;;;;;;;;;;5115655;27;20578;-66
2022/09/10 06:10:17;;;;;;;2.73;1.20;;;;;;;;;;5116437;27;20740;-66
2022/09/10 06:12:51;;;;;;;3.33;1.60;;;;;;;;;;5115950;27;20318;-65
2022/09/10 06:15:19;;;;;;;1.67;1.30;;;;;;;;;;5116039;27;20313;-65
2022/09/10 06:17:47;;;;;;;2.57;1.20;;;;;;;;;;5115841;27;20210;-66
2022/09/10 06:20:14;;;;;;;2.00;1.30;;;;;;;;;;5115695;27;20207;-65
2022/09/10 06:22:42;;;;;;;4.00;1.53;;;;;;;;;;5115705;27;20314;-65
2022/09/10 06:25:09;;;;;;;1.30;1.20;;;;;;;;;;5115776;27;20258;-65
2022/09/10 06:27:37;;;;;;;3.40;1.40;;;;;;;;;;5133886;27;20653;-65
2022/09/10 06:30:04;;;;;;;1.97;1.73;;;;;;;;;;5116044;27;20291;-65
2022/09/10 06:32:31;;;;;;;2.37;1.13;;;;;;;;;;5115093;27;20298;-65
2022/09/10 06:34:59;;;;;;;1.50;1.40;;;;;;;;;;5114485;27;20330;-65
2022/09/10 06:37:26;;;;;;;2.10;1.30;;;;;;;;;;5115209;27;20195;-66
2022/09/10 06:39:53;;;;;;;3.63;1.20;;;;;;;;;;5115200;27;20290;-65
2022/09/10 06:42:22;;;;;;;2.40;1.40;;;;;;;;;;5115283;27;20244;-66
2022/09/10 06:44:50;;;;;;;2.43;1.27;;;;;;;;;;5115754;27;20844;-65
2022/09/10 06:47:17;;;;;;;1.63;1.30;;;;;;;;;;5114587;27;20673;-66
2022/09/10 06:50:05;;;;;;;4.07;1.33;;;;;;;;;;5118109;27;20217;-65
2022/09/10 06:52:32;;;;;;;1.40;1.20;;;;;;;;;;5115263;27;20294;-65
2022/09/10 06:54:59;;;;;;;2.27;1.13;;;;;;;;;;5114400;27;20243;-65
2022/09/10 06:57:28;;;;;;;3.07;1.40;;;;;;;;;;5114571;27;20219;-65
2022/09/10 06:59:55;;;;;;;1.33;1.10;;;;;;;;;;5114768;27;20206;-65
2022/09/10 07:02:22;;;;;;;2.80;2.60;;;;;;;;;;5144801;27;20213;-65
2022/09/10 07:04:49;;;;;;;1.43;1.20;;;;;;;;;;5130444;27;20278;-65
2022/09/10 07:07:18;;;;;;;1.77;1.23;;;;;;;;;;5114538;27;20768;-66
2022/09/10 07:09:46;;;;;;;1.63;1.20;;;;;;;;;;5114837;27;20286;-65
2022/09/10 07:12:13;;;;;;;2.23;1.23;;;;;;;;;;5114341;27;20665;-66
2022/09/10 07:14:40;;;;;;;1.60;0.93;;;;;;;;;;5114248;27;20306;-65
2022/09/10 07:17:08;;;;;;;3.20;1.00;;;;;;;;;;5114194;27;20207;-65
2022/09/10 07:19:36;;;;;;;3.57;0.93;;;;;;;;;;5114900;27;20656;-65
2022/09/10 07:22:03;;;;;;;2.10;0.80;;;;;;;;;;5114548;27;20700;-66
2022/09/10 07:24:31;;;;;;;2.08;0.98;;;;;;;;;;5115035;27;20245;-65
2022/09/10 07:26:58;;;;;;;1.50;0.90;;;;;;;;;;5113916;27;20311;-66
2022/09/10 07:29:28;;;;;;;1.40;0.82;;;;;;;;;;5113706;27;20206;-65
2022/09/10 07:31:55;;;;;;;1.00;0.90;;;;;;;;;;5114087;27;20635;-65
2022/09/10 07:34:23;;;;;;;0.90;0.90;;;;;;;;;;5114497;27;20753;-66
2022/09/10 07:36:50;;;;;;;1.45;1.08;;;;;;;;;;5114842;27;20585;-66
2022/09/10 07:39:18;;;;;;;0.95;0.95;;;;;;;;;;5113994;27;20211;-66
2022/09/10 07:41:52;;;;;;;1.17;0.80;;;;;;;;;;5115334;27;20209;-66
2022/09/10 07:44:19;;;;;;;0.98;0.70;;;;;;;;;;5114280;27;20303;-65
2022/09/10 07:46:46;;;;;;;1.30;0.80;;;;;;;;;;5114095;27;20314;-66
2022/09/10 07:49:14;;;;;;;1.90;0.90;;;;;;;;;;5132445;27;20688;-65
2022/09/10 07:51:41;;;;;;;0.70;0.70;;;;;;;;;;5114358;27;20231;-66
2022/09/10 07:54:08;;;;;;;1.33;0.80;;;;;;;;;;5113337;27;20604;-65
2022/09/10 07:56:36;;;;;;;1.38;0.80;;;;;;;;;;5093414;28;20571;-66
2022/09/10 07:59:04;;;;;;;0.65;0.65;;;;;;;;;;5110949;27;20606;-66
2022/09/10 08:01:31;;;;;;;1.73;0.88;;;;;;;;;;5114405;27;20282;-66
2022/09/10 08:03:59;;;;;;;1.77;0.73;;;;;;;;;;5112910;27;20274;-65
2022/09/10 08:06:26;;;;;;;0.73;0.68;;;;;;;;;;5113295;27;20701;-66
2022/09/10 08:08:54;;;;;;;2.03;0.70;;;;;;;;;;5113771;27;20199;-66
2022/09/10 08:11:21;;;;;;;0.75;0.70;;;;;;;;;;5132655;27;20206;-65
2022/09/10 08:13:49;;;;;;;0.60;0.60;;;;;;;;;;5133769;27;20816;-66
2022/09/10 08:16:18;;;;;;;1.38;0.73;;;;;;;;;;5133963;27;20707;-65
2022/09/10 08:18:52;;;;;;;0.63;0.60;;;;;;;;;;5134040;27;20290;-65
2022/09/10 08:21:19;;;;;;;3.40;0.60;;;;;;;;;;5134183;27;20512;-66
2022/09/10 08:23:47;;;;;;;1.00;0.60;;;;;;;;;;5134010;27;20218;-66
2022/09/10 08:26:15;;;;;;;1.38;0.52;;;;;;;;;;5132837;27;20225;-65
2022/09/10 08:28:43;;;;;;;1.63;0.90;;;;;;;;;;5118858;27;20506;-66
2022/09/10 08:31:11;;;;;;;1.55;0.73;;;;;;;;;;5113160;27;20287;-66
2022/09/10 08:33:39;;;;;;;0.95;0.80;;;;;;;;;;5113108;27;20228;-66
2022/09/10 08:36:08;;;;;;;3.15;0.90;;;;;;;;;;5113209;27;20210;-66
2022/09/10 08:38:37;;;;;;;1.05;0.60;;;;;;;;;;5113353;27;20303;-66
2022/09/10 08:41:31;;;;;;;1.77;0.93;;;;;;;;;;5113430;27;20669;-65
2022/09/10 08:44:02;;;;;;;0.80;0.57;;;;;;;;;;5090275;27;20262;-66
2022/09/10 08:46:33;;;;;;;1.13;0.60;;;;;;;;;;5133022;27;20644;-65
2022/09/10 08:49:11;;;;;;;1.75;0.90;;;;;;;;;;5133896;27;20293;-66
2022/09/10 08:51:50;;;;;;;1.08;0.68;;;;;;;;;;5122669;27;20195;-65
2022/09/10 08:54:21;;;;;;;0.80;0.80;;;;;;;;;;5112277;28;20272;-66
2022/09/10 08:56:49;;;;;;;4.70;0.90;;;;;;;;;;5112430;28;20283;-66
2022/09/10 08:59:21;;;;;;;1.73;0.63;;;;;;;;;;5112202;27;20286;-66
2022/09/10 09:02:00;;;;;;;4.47;0.88;;;;;;;;;;5113215;28;20298;-65
2022/09/10 09:04:34;;;;;;;3.83;0.85;;;;;;;;;;5130511;28;20787;-66
2022/09/10 09:07:03;;;;;;;2.63;0.75;;;;;;;;;;5112161;28;20226;-66
2022/09/10 09:09:30;;;;;;;0.85;0.85;;;;;;;;;;5112745;28;20290;-65
2022/09/10 09:12:03;;;;;;;2.05;0.75;;;;;;;;;;5112206;28;20199;-65
2022/09/10 09:14:49;;;;;;;0.60;0.60;;;;;;;;;;5112417;28;20718;-66
2022/09/10 09:17:35;;;;;;;3.60;1.10;;;;;;;;;;5114424;27;20279;-65
2022/09/10 09:20:04;;;;;;;0.85;0.70;;;;;;;;;;5133079;27;20293;-65
2022/09/10 09:22:42;;;;;;;2.50;0.90;;;;;;;;;;5132809;27;20221;-65
2022/09/10 09:25:23;;;;;;;1.87;0.97;;;;;;;;;;5133271;27;20694;-66
2022/09/10 09:27:54;;;;;;;1.33;0.90;;;;;;;;;;5143980;27;20310;-65
2022/09/10 09:30:34;;;;;;;1.88;0.50;;;;;;;;;;5112913;28;20282;-65
2022/09/10 09:33:04;;;;;;;1.77;1.10;;;;;;;;;;5113272;28;20230;-65
2022/09/10 09:35:33;;;;;;;2.03;0.90;;;;;;;;;;5125451;27;20238;-66
2022/09/10 09:38:07;;;;;;;1.17;0.87;;;;;;;;;;5133841;27;20628;-65
2022/09/10 09:40:46;;;;;;;3.08;1.00;;;;;;;;;;5133477;27;20289;-66
2022/09/10 09:43:14;;;;;;;0.73;0.70;;;;;;;;;;5133266;27;20241;-66
2022/09/10 09:45:46;;;;;;;1.20;0.95;;;;;;;;;;5133793;27;20226;-66
2022/09/10 09:48:15;;;;;;;3.42;0.80;;;;;;;;;;5134216;27;20578;-66
2022/09/10 09:50:45;;;;;;;1.13;0.77;;;;;;;;;;5135337;27;20287;-66
2022/09/10 09:53:17;;;;;;;1.45;0.80;;;;;;;;;;5116208;28;20223;-66
2022/09/10 09:55:46;;;;;;;3.22;1.00;;;;;;;;;;5126126;28;20206;-65
2022/09/10 09:58:20;;;;;;;2.53;0.70;;;;;;;;;;5113818;28;20227;-66
2022/09/10 10:01:11;;;;;;;2.42;0.88;;;;;;;;;;5113001;28;20688;-65
2022/09/10 10:04:00;;;;;;;1.70;0.60;;;;;;;;;;5129889;28;20220;-65
2022/09/10 10:06:44;;;;;;;2.63;0.70;;;;;;;;;;5112303;28;20227;-65
2022/09/10 10:09:31;;;;;;;0.82;0.60;;;;;;;;;;5123017;27;20282;-65
2022/09/10 10:12:07;;;;;;;1.02;0.65;;;;;;;;;;5136892;27;20281;-65
2022/09/10 10:14:38;;;;;;;0.73;0.73;;;;;;;;;;5136635;27;20309;-65
2022/09/10 10:17:25;;;;;;;0.68;0.60;;;;;;;;;;5129207;27;20474;-66
2022/09/10 10:20:01;;;;;;;1.15;0.73;;;;;;;;;;5099999;27;20707;-66
2022/09/10 10:22:32;;;;;;;1.70;0.68;;;;;;;;;;5116559;27;20233;-65
2022/09/10 10:25:00;;;;;;;1.25;0.60;;;;;;;;;;5116204;27;20235;-66
2022/09/10 10:27:31;;;;;;;0.68;0.60;;;;;;;;;;5131200;27;20232;-65
2022/09/10 10:29:59;;;;;;;0.63;0.55;;;;;;;;;;5116290;27;20238;-65
2022/09/10 10:32:45;;;;;;;0.88;0.60;;;;;;;;;;5115707;27;20199;-65
2022/09/10 10:35:31;;;;;;;0.55;0.52;;;;;;;;;;5115963;27;20286;-66
2022/09/10 10:38:17;;;;;;;1.35;0.80;;;;;;;;;;5115329;27;20722;-65
2022/09/10 10:41:05;;;;;;;0.55;0.55;;;;;;;;;;5114549;27;20746;-65
2022/09/10 10:43:40;;;;;;;0.88;0.60;;;;;;;;;;5115799;27;20227;-66
2022/09/10 10:46:15;;;;;;;0.60;0.60;;;;;;;;;;5128622;27;20290;-66
2022/09/10 10:48:58;;;;;;;1.05;0.60;;;;;;;;;;5107869;27;20383;-65
2022/09/10 10:51:44;;;;;;;2.47;0.70;;;;;;;;;;5113868;27;20283;-66
2022/09/10 10:54:30;;;;;;;0.95;0.55;;;;;;;;;;5111553;27;20306;-65
2022/09/10 10:57:11;;;;;;;3.33;0.77;;;;;;;;;;5119069;27;20691;-66
2022/09/10 10:59:59;;;;;;;1.55;0.57;;;;;;;;;;5115601;27;20638;-65
2022/09/10 11:02:38;;;;;;;0.57;0.57;;;;;;;;;;5114570;27;20290;-65
2022/09/10 11:05:25;;;;;;;0.65;0.60;;;;;;;;;;5113893;27;20195;-65
2022/09/10 11:07:53;;;;;;;0.73;0.70;;;;;;;;;;5114683;27;20661;-65
2022/09/10 11:10:23;;;;;;;0.75;0.70;;;;;;;;;;5114258;27;20225;-65
2022/09/10 11:13:02;;;;;;;0.70;0.70;;;;;;;;;;5114053;27;20657;-65
2022/09/10 11:15:36;;;;;;;0.88;0.50;;;;;;;;;;5114390;27;20206;-65
2022/09/10 11:18:10;;;;;;;1.02;0.90;;;;;;;;;;5114124;27;20255;-65
2022/09/10 11:20:42;;;;;;;1.38;0.63;;;;;;;;;;5093699;28;20292;-65
2022/09/10 11:23:09;;;;;;;0.90;0.65;;;;;;;;;;5101629;27;20315;-64
2022/09/10 11:25:42;;;;;;;0.60;0.60;;;;;;;;;;5113641;27;20676;-65
2022/09/10 11:28:18;;;;;;;1.08;0.70;;;;;;;;;;5114413;27;20310;-65
2022/09/10 11:30:49;;;;;;;0.73;0.73;;;;;;;;;;5114689;27;20226;-66
2022/09/10 11:33:28;;;;;;;1.58;0.73;;;;;;;;;;5115726;27;20310;-65
2022/09/10 11:36:04;;;;;;;0.47;0.47;;;;;;;;;;5152969;27;20202;-65
2022/09/10 11:38:40;;;;;;;1.23;0.50;;;;;;;;;;5115037;27;20211;-66
2022/09/10 11:41:16;;;;;;;0.70;0.70;;;;;;;;;;5113828;27;20234;-66
2022/09/10 11:43:51;;;;;;;1.63;0.70;;;;;;;;;;5114037;27;20258;-66
2022/09/10 11:46:22;;;;;;;0.50;0.50;;;;;;;;;;5129645;27;20718;-65
2022/09/10 11:49:02;;;;;;;3.38;0.80;;;;;;;;;;5114178;27;20234;-66
2022/09/10 11:51:32;;;;;;;1.55;0.70;;;;;;;;;;5113770;27;20204;-66
2022/09/10 11:54:02;;;;;;;0.68;0.60;;;;;;;;;;5131721;27;20783;-64
2022/09/10 11:56:35;;;;;;;0.60;0.60;;;;;;;;;;5113437;27;20670;-64
2022/09/10 11:59:03;;;;;;;0.60;0.60;;;;;;;;;;5137809;27;20234;-65
2022/09/10 12:01:37;;;;;;;0.70;0.70;;;;;;;;;;5152356;27;20289;-66
2022/09/10 12:04:11;;;;;;;0.95;0.70;;;;;;;;;;5145927;27;20594;-66
2022/09/10 12:06:53;;;;;;;0.98;0.70;;;;;;;;;;5120811;27;20312;-65
2022/09/10 12:09:24;;;;;;;2.00;0.70;;;;;;;;;;5132908;27;20297;-66
2022/09/10 12:12:04;;;;;;;1.92;0.88;;;;;;;;;;5141342;27;20282;-65
2022/09/10 12:14:32;;;;;;;1.45;0.98;;;;;;;;;;5113432;27;20303;-66
2022/09/10 12:17:04;;;;;;;0.73;0.60;;;;;;;;;;5113219;27;20290;-66
2022/09/10 12:19:40;;;;;;;2.67;1.02;;;;;;;;;;5113212;27;20214;-65
2022/09/10 12:22:15;;;;;;;0.98;0.82;;;;;;;;;;5131994;27;20348;-65
2022/09/10 12:24:51;;;;;;;2.28;1.13;;;;;;;;;;5113216;27;20463;-66
2022/09/10 12:27:19;;;;;;;1.23;0.80;;;;;;;;;;5112681;27;20262;-65
2022/09/10 12:29:48;;;;;;;0.80;0.80;;;;;;;;;;5112810;27;20286;-65
2022/09/10 12:32:21;;;;;;;0.93;0.90;;;;;;;;;;5112746;28;20200;-65
2022/09/10 12:35:08;;;;;;;3.95;1.58;;;;;;;;;;5113097;27;20215;-65
2022/09/10 12:37:36;;;;;;;1.77;1.10;;;;;;;;;;5112460;27;20297;-65
2022/09/10 12:40:22;;;;;;;0.80;0.80;;;;;;;;;;5120022;27;20278;-66
2022/09/10 12:42:49;;;;;;;1.02;0.98;;;;;;;;;;5148091;27;20439;-66
2022/09/10 12:45:36;;;;;;;1.55;1.10;;;;;;;;;;5126388;27;20226;-64
2022/09/10 12:48:10;;;;;;;2.92;1.17;;;;;;;;;;5113147;27;20313;-65
2022/09/10 12:50:44;;;;;;;1.15;1.00;;;;;;;;;;5112792;27;20234;-66
2022/09/10 12:53:30;;;;;;;1.48;1.10;;;;;;;;;;5129540;27;20234;-64
2022/09/10 12:56:00;;;;;;;1.15;0.90;;;;;;;;;;5113343;27;20247;-66
2022/09/10 12:58:31;;;;;;;1.65;1.02;;;;;;;;;;5105398;27;20243;-68
2022/09/10 13:01:14;;;;;;;1.05;0.88;;;;;;;;;;5112913;27;20203;-65
2022/09/10 13:03:56;;;;;;;1.05;0.60;;;;;;;;;;5109848;28;20277;-68
2022/09/10 13:06:37;;;;;;;0.65;0.60;;;;;;;;;;5094732;28;20208;-66
2022/09/10 13:09:15;;;;;;;0.50;0.50;;;;;;;;;;5112777;28;20279;-65
2022/09/10 13:11:45;;;;;;;0.70;0.70;;;;;;;;;;5112848;28;20199;-64
2022/09/10 13:14:19;;;;;;;0.90;0.63;;;;;;;;;;5112380;28;20251;-64
2022/09/10 13:16:46;;;;;;;1.38;0.65;;;;;;;;;;5112894;28;20212;-66
2022/09/10 13:19:16;;;;;;;0.70;0.70;;;;;;;;;;5092664;28;20287;-65
2022/09/10 13:21:43;;;;;;;0.82;0.40;;;;;;;;;;5105760;28;20243;-65
2022/09/10 13:24:30;;;;;;;0.70;0.60;;;;;;;;;;5112676;28;20223;-66
2022/09/10 13:27:18;;;;;;;1.67;0.80;;;;;;;;;;5112117;28;20680;-65
2022/09/10 13:29:48;;;;;;;1.25;0.82;;;;;;;;;;5105845;28;20282;-66
2022/09/10 13:32:27;;;;;;;0.90;0.90;;;;;;;;;;5114117;27;20218;-66
2022/09/10 13:35:15;;;;;;;1.90;0.60;;;;;;;;;;5132990;27;20764;-65
2022/09/10 13:37:43;;;;;;;1.23;0.80;;;;;;;;;;5132819;27;20207;-65
2022/09/10 13:40:29;;;;;;;1.00;0.77;;;;;;;;;;5132931;27;20282;-65
2022/09/10 13:42:56;;;;;;;1.08;0.73;;;;;;;;;;5116997;28;20231;-66
2022/09/10 13:45:29;;;;;;;0.73;0.73;;;;;;;;;;5115042;27;20203;-65
2022/09/10 13:48:09;;;;;;;1.25;0.80;;;;;;;;;;5115911;27;20719;-65
2022/09/10 13:50:40;;;;;;;0.70;0.70;;;;;;;;;;5108566;27;20282;-63
2022/09/10 13:53:10;;;;;;;1.08;0.68;;;;;;;;;;5116273;27;20247;-64
2022/09/10 13:55:40;;;;;;;1.05;0.70;;;;;;;;;;5107935;27;20753;-66
2022/09/10 13:58:15;;;;;;;1.52;0.80;;;;;;;;;;5112383;27;20225;-66
2022/09/10 14:00:51;;;;;;;1.30;0.90;;;;;;;;;;5116272;27;20206;-66
2022/09/10 14:03:24;;;;;;;2.70;1.95;;;;;;;;;;5114490;27;20270;-66
2022/09/10 14:05:53;;;;;;;2.33;0.80;;;;;;;;;;5110625;27;20214;-64
2022/09/10 14:08:48;;;;;;;1.10;1.00;;;;;;;;;;5116933;27;20310;-64
2022/09/10 14:11:17;;;;;;;1.90;0.70;;;;;;;;;;5115090;27;20231;-64
2022/09/10 14:13:48;;;;;;;0.75;0.55;;;;;;;;;;5134895;27;20299;-64
2022/09/10 14:16:22;;;;;;;1.88;1.00;;;;;;;;;;5117574;27;20200;-63
2022/09/10 14:18:58;;;;;;;1.52;0.85;;;;;;;;;;5117308;27;20195;-64
2022/09/10 14:21:26;;;;;;;3.08;0.65;;;;;;;;;;5116205;27;20720;-64
2022/09/10 14:23:54;;;;;;;1.02;0.80;;;;;;;;;;5114584;27;20306;-64
2022/09/10 14:26:24;;;;;;;1.88;0.85;;;;;;;;;;5114975;27;20263;-63
2022/09/10 14:28:57;;;;;;;1.48;0.80;;;;;;;;;;5116837;27;20314;-63
2022/09/10 14:31:25;;;;;;;1.08;0.75;;;;;;;;;;5116999;27;20200;-64
2022/09/10 14:33:57;;;;;;;1.20;0.80;;;;;;;;;;5115753;27;20261;-64
2022/09/10 14:36:27;;;;;;;0.85;0.70;;;;;;;;;;5115824;27;20294;-64
2022/09/10 14:39:03;;;;;;;1.20;0.90;;;;;;;;;;5116087;27;20223;-64
2022/09/10 14:41:31;;;;;;;2.92;0.80;;;;;;;;;;5116418;27;20203;-64
2022/09/10 14:44:34;;;;;;;0.70;0.70;;;;;;;;;;5116250;27;20661;-64
2022/09/10 14:47:07;;;;;;;3.80;0.77;;;;;;;;;;5094026;27;20647;-65
2022/09/10 14:49:37;;;;;;;1.98;1.08;;;;;;;;;;5094789;28;20493;-64
2022/09/10 14:52:04;;;;;;;1.55;0.98;;;;;;;;;;5124096;27;20265;-65
2022/09/10 14:54:33;;;;;;;2.45;0.70;;;;;;;;;;5116254;27;20215;-64
2022/09/10 14:57:05;;;;;;;1.52;0.77;;;;;;;;;;5115220;27;20291;-63
2022/09/10 14:59:32;;;;;;;1.25;0.73;;;;;;;;;;5115202;27;20295;-64
2022/09/10 15:02:00;;;;;;;1.10;0.73;;;;;;;;;;5116463;27;20238;-64
2022/09/10 15:04:29;;;;;;;1.75;0.82;;;;;;;;;;5114620;27;20227;-65
2022/09/10 15:07:01;;;;;;;2.90;0.90;;;;;;;;;;5126976;27;20204;-65
2022/09/10 15:09:30;;;;;;;2.15;0.80;;;;;;;;;;5117918;27;20199;-65